createdAt,value
2019-04-16T00:00:15.437Z,63.33
2019-04-16T00:02:48.564Z,63.49
2019-04-16T00:05:27.495Z,64.18
2019-04-16T00:08:26.651Z,63.80
2019-04-16T00:10:42.049Z,63.77
2019-04-16T00:13:20.843Z,64.34
2019-04-16T00:15:49.295Z,65.45
2019-04-16T00:18:18.707Z,65.53
2019-04-16T00:20:58.568Z,65.59
2019-04-16T00:23:40.507Z,65.50
2019-04-16T00:26:09.309Z,66.13
2019-04-16T00:28:37.726Z,65.99
2019-04-16T00:31:06.338Z,66.50
2019-04-16T00:33:34.781Z,66.42
2019-04-16T00:36:03.229Z,67.16
2019-04-16T00:38:40.733Z,66.81
2019-04-16T00:41:02.241Z,66.97
2019-04-16T00:43:30.741Z,67.20
2019-04-16T00:45:59.166Z,67.65
2019-04-16T00:48:27.582Z,67.84
2019-04-16T00:50:56.014Z,67.45
2019-04-16T00:53:24.441Z,67.68
2019-04-16T00:55:52.863Z,67.86
2019-04-16T00:58:21.294Z,68.32
2019-04-16T01:00:49.720Z,68.09
2019-04-16T01:03:18.161Z,68.21
2019-04-16T01:05:46.604Z,68.56
2019-04-16T01:08:15.087Z,68.82
2019-04-16T01:10:43.527Z,69.50
2019-04-16T01:13:11.957Z,70.02
2019-04-16T01:15:40.398Z,70.43
2019-04-16T01:18:09.007Z,69.78
2019-04-16T01:20:37.422Z,70.53
2019-04-16T01:23:05.852Z,70.46
2019-04-16T01:25:34.787Z,70.05
2019-04-16T01:28:04.844Z,70.42
2019-04-16T01:30:36.548Z,70.01
2019-04-16T01:33:18.268Z,70.25
2019-04-16T01:35:52.615Z,70.27
2019-04-16T01:38:27.910Z,70.54
2019-04-16T01:40:57.609Z,70.44
2019-04-16T01:43:26.454Z,70.38
2019-04-16T01:45:55.178Z,70.65
2019-04-16T01:48:24.682Z,70.68
2019-04-16T01:50:53.174Z,70.62
2019-04-16T01:53:21.754Z,70.93
2019-04-16T01:55:50.146Z,71.23
2019-04-16T01:58:18.570Z,71.16
2019-04-16T02:00:46.997Z,71.69
2019-04-16T02:03:17.829Z,71.12
2019-04-16T02:05:45.593Z,71.15
2019-04-16T02:08:14.038Z,72.15
2019-04-16T02:10:42.475Z,72.16
2019-04-16T02:13:14.545Z,71.90
2019-04-16T02:15:41.053Z,71.90
2019-04-16T02:18:09.486Z,71.96
2019-04-16T02:20:39.313Z,72.32
2019-04-16T02:23:08.133Z,72.49
2019-04-16T02:25:36.556Z,71.84
2019-04-16T02:28:04.995Z,72.02
2019-04-16T02:30:37.609Z,72.42
2019-04-16T02:33:03.594Z,72.33
2019-04-16T02:35:32.011Z,71.99
2019-04-16T02:38:00.678Z,71.85
2019-04-16T02:40:29.261Z,71.97
2019-04-16T02:43:04.153Z,72.40
2019-04-16T02:45:27.838Z,72.46
2019-04-16T02:47:56.261Z,71.95
2019-04-16T02:50:30.712Z,72.53
2019-04-16T02:52:58.166Z,72.57
2019-04-16T02:55:28.205Z,72.23
2019-04-16T02:58:07.607Z,72.42
2019-04-16T03:00:53.951Z,72.54
2019-04-16T03:03:27.004Z,72.33
2019-04-16T03:06:00.676Z,72.47
2019-04-16T03:08:27.524Z,72.84
2019-04-16T03:10:55.962Z,72.63
2019-04-16T03:13:24.387Z,72.49
2019-04-16T03:15:54.697Z,72.99
2019-04-16T03:18:27.434Z,73.01
2019-04-16T03:20:56.656Z,72.79
2019-04-16T03:23:25.382Z,73.18
2019-04-16T03:25:53.818Z,73.23
2019-04-16T03:28:23.523Z,72.99
2019-04-16T03:30:52.461Z,73.51
2019-04-16T03:33:20.892Z,72.91
2019-04-16T03:35:49.376Z,73.20
2019-04-16T03:38:17.797Z,73.26
2019-04-16T03:40:46.242Z,73.19
2019-04-16T03:43:15.012Z,73.24
2019-04-16T03:45:43.445Z,73.72
2019-04-16T03:48:11.878Z,73.56
2019-04-16T03:50:40.360Z,73.33
2019-04-16T03:53:08.789Z,73.71
2019-04-16T03:55:37.253Z,73.31
2019-04-16T03:58:07.178Z,73.51
2019-04-16T04:00:36.276Z,73.26
2019-04-16T04:03:04.696Z,73.17
2019-04-16T04:05:34.894Z,73.45
2019-04-16T04:08:03.468Z,73.62
2019-04-16T04:10:36.803Z,73.84
2019-04-16T04:13:04.733Z,73.73
2019-04-16T04:15:32.203Z,73.94
2019-04-16T04:18:00.671Z,74.27
2019-04-16T04:20:29.102Z,74.46
2019-04-16T04:22:57.860Z,75.05
2019-04-16T04:25:26.420Z,75.46
2019-04-16T04:27:55.099Z,75.13
2019-04-16T04:30:25.686Z,74.83
2019-04-16T04:32:55.383Z,74.57
2019-04-16T04:35:23.829Z,75.11
2019-04-16T04:37:52.252Z,74.77
2019-04-16T04:40:20.701Z,74.60
2019-04-16T04:42:49.133Z,75.54
2019-04-16T04:45:17.570Z,75.61
2019-04-16T04:47:51.242Z,75.75
2019-04-16T04:50:16.541Z,75.79
2019-04-16T04:52:45.984Z,75.42
2019-04-16T04:55:15.229Z,75.53
2019-04-16T04:57:43.651Z,75.30
2019-04-16T05:00:12.817Z,75.21
2019-04-16T05:02:43.815Z,75.20
2019-04-16T05:05:17.875Z,74.73
2019-04-16T05:07:46.255Z,73.27
2019-04-16T05:10:14.760Z,74.70
2019-04-16T05:12:43.177Z,74.49
2019-04-16T05:15:11.845Z,74.34
2019-04-16T05:17:40.283Z,74.21
2019-04-16T05:20:08.912Z,74.26
2019-04-16T05:22:37.329Z,74.36
2019-04-16T05:25:06.868Z,74.26
2019-04-16T05:27:40.244Z,74.36
2019-04-16T05:30:07.090Z,74.05
2019-04-16T05:32:35.531Z,73.72
2019-04-16T05:35:09.227Z,73.66
2019-04-16T05:37:35.966Z,73.65
2019-04-16T05:40:07.498Z,73.47
2019-04-16T05:42:35.920Z,73.54
2019-04-16T05:45:06.991Z,73.07
2019-04-16T05:47:36.336Z,73.13
2019-04-16T05:50:06.131Z,72.50
2019-04-16T05:52:35.704Z,72.52
2019-04-16T05:55:10.472Z,72.47
2019-04-16T05:57:40.556Z,72.52
2019-04-16T06:00:10.983Z,72.14
2019-04-16T06:02:40.863Z,72.07
2019-04-16T06:05:08.740Z,72.14
2019-04-16T06:07:38.003Z,70.72
2019-04-16T06:10:08.819Z,71.28
2019-04-16T06:12:41.518Z,70.96
2019-04-16T06:15:11.717Z,71.09
2019-04-16T06:17:57.799Z,70.58
2019-04-16T06:20:27.857Z,70.38
2019-04-16T06:23:06.626Z,70.45
2019-04-16T06:25:41.005Z,70.12
2019-04-16T06:28:10.905Z,69.62
2019-04-16T06:30:57.154Z,69.46
2019-04-16T06:33:30.152Z,69.51
2019-04-16T06:36:12.099Z,69.45
2019-04-16T06:38:44.859Z,69.01
2019-04-16T06:41:15.205Z,69.13
2019-04-16T06:43:44.755Z,68.33
2019-04-16T06:46:30.907Z,67.22
2019-04-16T06:49:06.684Z,67.45
2019-04-16T06:51:52.834Z,67.48
2019-04-16T06:54:41.125Z,67.10
2019-04-16T06:57:12.163Z,66.58
2019-04-16T06:59:43.161Z,66.84
2019-04-16T07:02:29.591Z,66.28
2019-04-16T07:05:14.527Z,66.00
2019-04-16T07:07:59.793Z,65.29
2019-04-16T07:10:43.796Z,65.47
2019-04-16T07:13:00.006Z,64.71
2019-04-16T07:15:29.006Z,64.05
2019-04-16T07:17:57.739Z,63.53
2019-04-16T07:20:26.162Z,62.95
2019-04-16T07:22:54.681Z,62.57
2019-04-16T07:25:27.038Z,62.10
2019-04-16T07:28:00.966Z,62.35
2019-04-16T07:30:31.368Z,61.04
2019-04-16T07:33:06.988Z,61.65
2019-04-16T07:35:51.838Z,61.01
2019-04-16T07:38:21.903Z,60.87
2019-04-16T07:40:57.989Z,60.39
2019-04-16T07:43:30.990Z,59.84
2019-04-16T07:46:16.375Z,59.08
2019-04-16T07:48:58.595Z,58.98
2019-04-16T07:51:28.672Z,58.96
2019-04-16T07:54:04.581Z,58.11
2019-04-16T07:56:33.848Z,58.39
2019-04-16T07:59:02.273Z,58.68
2019-04-16T08:01:30.984Z,58.37
2019-04-16T08:04:00.917Z,56.73
2019-04-16T08:06:29.571Z,57.68
2019-04-16T08:08:58.499Z,56.94
2019-04-16T08:11:27.179Z,57.34
2019-04-16T08:13:55.622Z,56.59
2019-04-16T08:16:24.033Z,57.85
2019-04-16T08:18:52.617Z,57.14
2019-04-16T08:21:22.781Z,56.57
2019-04-16T08:23:53.188Z,56.98
2019-04-16T08:26:21.628Z,55.59
2019-04-16T08:28:50.425Z,55.63
2019-04-16T08:31:20.525Z,55.54
2019-04-16T08:33:49.548Z,54.96
2019-04-16T08:36:17.978Z,54.92
2019-04-16T08:38:46.421Z,54.70
2019-04-16T08:41:19.733Z,53.79
2019-04-16T08:43:45.016Z,52.22
2019-04-16T08:46:13.456Z,52.23
2019-04-16T08:48:41.896Z,52.84
2019-04-16T08:51:10.357Z,52.81
2019-04-16T08:53:38.825Z,51.90
2019-04-16T08:56:07.254Z,52.19
2019-04-16T08:58:38.438Z,52.46
2019-04-16T09:01:07.257Z,52.32
2019-04-16T09:03:35.690Z,51.56
2019-04-16T09:06:04.611Z,50.39
2019-04-16T09:08:35.132Z,50.62
2019-04-16T09:11:04.555Z,48.73
2019-04-16T09:13:40.889Z,49.43
2019-04-16T09:16:10.380Z,47.00
2019-04-16T09:18:42.407Z,46.17
2019-04-16T09:21:11.687Z,44.95
2019-04-16T09:23:40.197Z,44.13
2019-04-16T09:26:23.620Z,42.90
2019-04-16T09:28:52.795Z,42.51
2019-04-16T09:31:41.157Z,44.99
2019-04-16T09:34:11.219Z,41.97
2019-04-16T09:36:57.570Z,40.27
2019-04-16T09:39:27.687Z,39.68
2019-04-16T09:41:56.521Z,40.04
2019-04-16T09:44:29.729Z,39.02
2019-04-16T09:46:59.443Z,38.36
2019-04-16T09:49:25.449Z,38.64
2019-04-16T09:51:53.856Z,37.94
2019-04-16T09:54:22.414Z,38.38
2019-04-16T09:56:50.853Z,37.44
2019-04-16T09:59:35.918Z,36.80
2019-04-16T10:02:06.063Z,36.32
2019-04-16T10:04:34.510Z,35.47
2019-04-16T10:07:02.950Z,36.80
2019-04-16T10:09:31.394Z,36.03
2019-04-16T10:11:59.853Z,34.90
2019-04-16T10:14:28.255Z,35.40
2019-04-16T10:16:56.703Z,35.01
2019-04-16T10:19:25.171Z,33.81
2019-04-16T10:21:54.679Z,32.91
2019-04-16T10:24:24.895Z,33.58
2019-04-16T10:26:56.963Z,34.61
2019-04-16T10:29:25.245Z,33.68
2019-04-16T10:31:55.177Z,32.49
2019-04-16T10:34:23.572Z,32.76
2019-04-16T10:36:52.037Z,32.42
2019-04-16T10:39:27.762Z,31.84
2019-04-16T10:41:57.867Z,31.70
2019-04-16T10:44:30.572Z,31.79
2019-04-16T10:47:00.668Z,30.99
2019-04-16T10:49:33.383Z,31.40
2019-04-16T10:52:06.424Z,30.31
2019-04-16T10:54:42.186Z,30.16
2019-04-16T10:57:28.319Z,29.95
2019-04-16T11:00:01.256Z,30.89
2019-04-16T11:02:31.338Z,30.14
2019-04-16T11:05:15.375Z,29.87
2019-04-16T11:07:45.198Z,29.18
2019-04-16T11:10:14.184Z,29.74
2019-04-16T11:12:42.757Z,29.13
2019-04-16T11:15:13.175Z,27.40
2019-04-16T11:17:41.650Z,27.67
2019-04-16T11:20:10.348Z,28.22
2019-04-16T11:22:38.765Z,28.64
2019-04-16T11:25:07.351Z,28.98
2019-04-16T11:27:35.797Z,27.29
2019-04-16T11:30:08.431Z,28.49
2019-04-16T11:32:39.916Z,27.17
2019-04-16T11:35:06.376Z,26.52
2019-04-16T11:37:36.390Z,28.15
2019-04-16T11:40:06.308Z,26.86
2019-04-16T11:42:34.750Z,28.32
2019-04-16T11:45:04.471Z,28.59
2019-04-16T11:47:34.153Z,25.59
2019-04-16T11:50:03.140Z,25.14
2019-04-16T11:52:31.576Z,24.45
2019-04-16T11:55:00.865Z,23.60
2019-04-16T11:57:33.306Z,24.00
2019-04-16T12:00:06.525Z,23.09
2019-04-16T12:02:30.595Z,24.01
2019-04-16T12:05:00.762Z,23.57
2019-04-16T12:07:42.695Z,23.60
2019-04-16T12:10:29.821Z,24.21
2019-04-16T12:13:08.946Z,22.52
2019-04-16T12:15:39.001Z,22.33
2019-04-16T12:18:09.052Z,22.63
2019-04-16T12:20:48.458Z,23.07
2019-04-16T12:23:33.685Z,23.90
2019-04-16T12:26:10.020Z,21.13
2019-04-16T12:28:55.133Z,20.65
2019-04-16T12:31:31.118Z,21.27
2019-04-16T12:34:01.165Z,21.16
2019-04-16T12:36:47.369Z,21.44
2019-04-16T12:39:19.569Z,21.64
2019-04-16T12:42:00.005Z,21.73
2019-04-16T12:44:45.575Z,21.46
2019-04-16T12:47:13.640Z,21.62
2019-04-16T12:50:01.635Z,21.38
2019-04-16T12:52:48.042Z,20.59
2019-04-16T12:55:31.708Z,22.23
2019-04-16T12:58:04.581Z,22.06
2019-04-16T13:00:37.310Z,22.49
2019-04-16T13:03:23.429Z,21.05
2019-04-16T13:06:01.542Z,20.99
2019-04-16T13:08:31.299Z,20.82
2019-04-16T13:11:01.387Z,19.99
2019-04-16T13:13:43.445Z,21.44
2019-04-16T13:16:16.128Z,21.53
2019-04-16T13:19:02.597Z,20.94
2019-04-16T13:21:32.716Z,20.30
2019-04-16T13:24:03.032Z,19.32
2019-04-16T13:26:33.090Z,19.05
2019-04-16T13:29:03.161Z,19.24
2019-04-16T13:31:31.600Z,19.39
2019-04-16T13:34:00.125Z,18.92
2019-04-16T13:36:28.664Z,19.74
2019-04-16T13:39:10.626Z,18.79
2019-04-16T13:41:40.154Z,18.54
2019-04-16T13:44:10.221Z,18.97
2019-04-16T13:46:38.659Z,19.19
2019-04-16T13:49:08.842Z,19.57
2019-04-16T13:51:37.716Z,18.89
2019-04-16T13:54:16.524Z,18.15
2019-04-16T13:56:50.071Z,19.56
2019-04-16T13:59:18.393Z,19.29
2019-04-16T14:02:04.795Z,19.19
2019-04-16T14:04:36.745Z,19.25
2019-04-16T14:07:02.665Z,19.60
2019-04-16T14:09:31.043Z,19.03
2019-04-16T14:11:59.483Z,18.36
2019-04-16T14:14:27.912Z,19.23
2019-04-16T14:16:56.356Z,18.78
2019-04-16T14:19:24.812Z,19.78
2019-04-16T14:21:53.234Z,18.38
2019-04-16T14:24:21.666Z,18.51
2019-04-16T14:26:50.088Z,19.31
2019-04-16T14:29:19.389Z,18.47
2019-04-16T14:31:48.895Z,17.77
2019-04-16T14:34:21.928Z,17.02
2019-04-16T14:36:53.249Z,17.33
2019-04-16T14:39:24.679Z,17.81
2019-04-16T14:41:53.127Z,18.96
2019-04-16T14:44:23.177Z,18.97
2019-04-16T14:46:51.981Z,17.90
2019-04-16T14:49:20.420Z,17.58
2019-04-16T14:51:48.864Z,18.19
2019-04-16T14:54:18.960Z,18.28
2019-04-16T14:56:49.332Z,18.69
2019-04-16T14:59:30.275Z,19.18
2019-04-16T15:02:03.120Z,18.14
2019-04-16T15:04:40.208Z,19.55
2019-04-16T15:07:10.739Z,17.67
2019-04-16T15:09:53.285Z,17.33
2019-04-16T15:12:23.360Z,18.89
2019-04-16T15:14:53.933Z,16.67
2019-04-16T15:17:30.379Z,17.82
2019-04-16T15:20:02.987Z,18.08
2019-04-16T15:22:33.046Z,17.63
2019-04-16T15:25:15.391Z,17.88
2019-04-16T15:27:49.102Z,17.78
2019-04-16T15:30:33.471Z,17.79
2019-04-16T15:33:21.762Z,17.58
2019-04-16T15:35:54.773Z,18.62
2019-04-16T15:38:40.716Z,17.57
2019-04-16T15:41:13.224Z,17.97
2019-04-16T15:43:42.675Z,17.77
2019-04-16T15:46:28.527Z,17.35
2019-04-16T15:48:59.255Z,18.96
2019-04-16T15:51:50.656Z,18.01
2019-04-16T15:54:25.260Z,17.73
2019-04-16T15:56:55.332Z,18.19
2019-04-16T15:59:25.409Z,18.89
2019-04-16T16:02:11.444Z,18.55
2019-04-16T16:04:41.530Z,19.48
2019-04-16T16:07:10.329Z,19.99
2019-04-16T16:09:45.986Z,19.69
2019-04-16T16:12:16.056Z,20.03
2019-04-16T16:14:44.513Z,19.98
2019-04-16T16:17:12.977Z,20.24
2019-04-16T16:19:41.414Z,19.47
2019-04-16T16:22:11.906Z,20.21
2019-04-16T16:24:42.428Z,19.98
2019-04-16T16:27:10.163Z,19.98
2019-04-16T16:29:38.603Z,20.25
2019-04-16T16:32:07.041Z,20.71
2019-04-16T16:34:35.478Z,20.43
2019-04-16T16:37:04.517Z,20.94
2019-04-16T16:39:32.940Z,20.25
2019-04-16T16:42:01.367Z,20.50
2019-04-16T16:44:29.810Z,19.63
2019-04-16T16:47:08.882Z,19.63
2019-04-16T16:49:37.334Z,20.36
2019-04-16T16:52:10.590Z,20.62
2019-04-16T16:54:39.904Z,20.49
2019-04-16T16:57:09.971Z,20.03
2019-04-16T16:59:40.072Z,20.70
2019-04-16T17:02:19.056Z,21.64
2019-04-16T17:04:51.593Z,20.97
2019-04-16T17:07:20.009Z,20.77
2019-04-16T17:09:48.448Z,21.49
2019-04-16T17:12:16.877Z,21.65
2019-04-16T17:14:45.314Z,20.79
2019-04-16T17:17:15.234Z,21.21
2019-04-16T17:19:43.867Z,21.36
2019-04-16T17:22:14.619Z,21.71
2019-04-16T17:24:42.527Z,21.18
2019-04-16T17:27:10.960Z,21.84
2019-04-16T17:29:39.390Z,22.93
2019-04-16T17:32:07.857Z,22.00
2019-04-16T17:34:39.737Z,22.03
2019-04-16T17:37:07.032Z,23.29
2019-04-16T17:39:43.368Z,22.87
2019-04-16T17:42:16.207Z,23.24
2019-04-16T17:45:02.720Z,22.11
2019-04-16T17:47:33.390Z,22.18
2019-04-16T17:50:04.846Z,22.81
2019-04-16T17:52:51.265Z,24.33
2019-04-16T17:55:29.799Z,24.09
2019-04-16T17:58:05.628Z,23.66
2019-04-16T18:00:38.461Z,25.00
2019-04-16T18:03:08.499Z,24.14
2019-04-16T18:05:50.552Z,24.17
2019-04-16T18:08:23.378Z,24.74
2019-04-16T18:10:53.451Z,25.04
2019-04-16T18:13:35.509Z,26.54
2019-04-16T18:16:05.594Z,25.52
2019-04-16T18:18:47.367Z,26.18
2019-04-16T18:21:33.812Z,26.01
2019-04-16T18:24:06.856Z,26.11
2019-04-16T18:26:46.046Z,26.78
2019-04-16T18:29:34.199Z,27.67
2019-04-16T18:32:10.182Z,27.19
2019-04-16T18:34:45.843Z,27.08
2019-04-16T18:37:31.214Z,27.67
2019-04-16T18:40:16.334Z,28.41
2019-04-16T18:42:46.398Z,28.22
2019-04-16T18:45:18.968Z,28.45
2019-04-16T18:48:01.477Z,28.48
2019-04-16T18:50:23.608Z,28.78
2019-04-16T18:52:51.342Z,28.86
2019-04-16T18:55:19.775Z,29.35
2019-04-16T18:57:48.216Z,29.12
2019-04-16T19:00:28.675Z,29.53
2019-04-16T19:02:57.450Z,30.84
2019-04-16T19:05:25.887Z,30.26
2019-04-16T19:07:56.248Z,30.58
2019-04-16T19:10:24.472Z,30.92
2019-04-16T19:12:52.938Z,31.31
2019-04-16T19:15:21.391Z,31.69
2019-04-16T19:17:49.845Z,32.03
2019-04-16T19:20:18.421Z,32.22
2019-04-16T19:22:49.954Z,33.30
2019-04-16T19:25:16.952Z,33.67
2019-04-16T19:27:48.733Z,33.26
2019-04-16T19:30:15.539Z,33.56
2019-04-16T19:32:43.989Z,34.00
2019-04-16T19:35:17.731Z,34.29
2019-04-16T19:37:42.566Z,34.81
2019-04-16T19:40:11.072Z,34.60
2019-04-16T19:42:39.618Z,34.96
2019-04-16T19:45:08.659Z,34.90
2019-04-16T19:47:38.338Z,35.29
2019-04-16T19:50:07.171Z,35.15
2019-04-16T19:52:35.593Z,35.67
2019-04-16T19:55:05.470Z,35.51
2019-04-16T19:57:33.906Z,36.08
2019-04-16T20:00:02.396Z,35.80
2019-04-16T20:02:33.335Z,36.02
2019-04-16T20:05:00.966Z,36.09
2019-04-16T20:07:32.611Z,36.23
2019-04-16T20:09:59.568Z,36.53
2019-04-16T20:12:28.787Z,36.45
2019-04-16T20:14:57.421Z,36.56
2019-04-16T20:17:25.844Z,37.14
2019-04-16T20:20:01.017Z,38.13
2019-04-16T20:22:30.688Z,39.38
2019-04-16T20:24:59.279Z,40.01
2019-04-16T20:27:27.773Z,41.04
2019-04-16T20:29:56.816Z,43.08
2019-04-16T20:32:27.099Z,43.91
2019-04-16T20:34:55.033Z,44.32
2019-04-16T20:37:23.494Z,41.47
2019-04-16T20:39:51.943Z,44.67
2019-04-16T20:42:20.368Z,45.02
2019-04-16T20:44:48.813Z,45.07
2019-04-16T20:47:17.243Z,45.02
2019-04-16T20:49:45.970Z,45.08
2019-04-16T20:52:15.844Z,44.77
2019-04-16T20:54:46.114Z,44.50
2019-04-16T20:57:14.540Z,44.25
2019-04-16T20:59:42.966Z,44.42
2019-04-16T21:02:11.396Z,43.09
2019-04-16T21:04:39.827Z,42.97
2019-04-16T21:07:14.018Z,43.50
2019-04-16T21:09:38.494Z,43.79
2019-04-16T21:12:12.566Z,43.52
2019-04-16T21:14:37.110Z,43.44
2019-04-16T21:17:07.394Z,43.96
2019-04-16T21:19:46.413Z,44.12
2019-04-16T21:22:17.278Z,44.27
2019-04-16T21:24:46.724Z,44.56
2019-04-16T21:27:15.532Z,44.66
2019-04-16T21:29:44.877Z,45.03
2019-04-16T21:32:20.501Z,44.86
2019-04-16T21:34:58.593Z,45.50
2019-04-16T21:37:25.455Z,45.37
2019-04-16T21:39:55.521Z,45.64
2019-04-16T21:42:23.989Z,45.55
2019-04-16T21:44:52.419Z,46.10
2019-04-16T21:47:23.628Z,45.70
2019-04-16T21:49:51.020Z,45.86
2019-04-16T21:52:19.444Z,45.88
2019-04-16T21:54:47.879Z,45.72
2019-04-16T21:57:16.313Z,45.60
2019-04-16T21:59:44.758Z,46.16
2019-04-16T22:02:23.991Z,46.09
2019-04-16T22:04:52.422Z,46.15
2019-04-16T22:07:24.229Z,46.56
2019-04-16T22:09:51.037Z,46.09
2019-04-16T22:12:19.460Z,46.30
2019-04-16T22:14:51.058Z,46.28
2019-04-16T22:17:18.964Z,45.84
2019-04-16T22:19:54.272Z,46.50
2019-04-16T22:22:17.593Z,45.80
2019-04-16T22:24:46.030Z,45.22
2019-04-16T22:27:14.457Z,45.96
2019-04-16T22:29:47.263Z,46.29
2019-04-16T22:32:13.065Z,46.23
2019-04-16T22:34:41.494Z,46.04
2019-04-16T22:37:09.936Z,45.84
2019-04-16T22:39:56.549Z,45.99
2019-04-16T22:42:32.374Z,45.36
2019-04-16T22:45:20.683Z,46.06
2019-04-16T22:47:50.775Z,46.02
2019-04-16T22:50:19.382Z,46.30
2019-04-16T22:52:47.952Z,46.08
2019-04-16T22:55:16.450Z,46.16
2019-04-16T22:57:44.901Z,46.81
2019-04-16T23:00:18.021Z,46.45
2019-04-16T23:02:48.243Z,46.40
2019-04-16T23:05:17.368Z,46.57
2019-04-16T23:07:45.800Z,46.67
2019-04-16T23:10:14.265Z,46.93
2019-04-16T23:12:42.678Z,46.17
2019-04-16T23:15:12.796Z,46.95
2019-04-16T23:17:42.760Z,47.21
2019-04-16T23:20:11.643Z,47.11
2019-04-16T23:22:40.108Z,46.88
2019-04-16T23:25:08.549Z,47.33
2019-04-16T23:27:38.124Z,47.61
2019-04-16T23:30:09.260Z,47.29
2019-04-16T23:32:37.700Z,47.48
2019-04-16T23:35:11.076Z,47.65
2019-04-16T23:37:37.326Z,47.53
2019-04-16T23:40:07.160Z,47.34
2019-04-16T23:42:38.483Z,47.67
2019-04-16T23:45:10.478Z,48.04
2019-04-16T23:47:43.244Z,45.77
2019-04-16T23:50:13.302Z,47.70
2019-04-16T23:52:52.479Z,47.95
2019-04-16T23:55:22.644Z,47.95
2019-04-16T23:58:04.577Z,48.24
